Malaysia Virtual Airlines Airport Information Service

Helsinki-Vantaa Airport

ICAO: EFHK Country: Finland
Latitude: 60.3172 Longitude: 24.9633
Latest Arrival : AY834 (EGLL-EFHK) Latest Departure : MH9265 (EFHK-EGLL)


WX CaptureLIVE
Data provided by noaa.gov | Fetched at 16:22:56

METAR : EFHK 261550Z 15007KT 120V180 CAVOK 28/10 Q1019 NOSIG

TAF : EFHK 261426Z 2615/2715 17009KT CAVOK BECMG 2707/2709 11010KT


Runway Data for EFHK
Data provided by openaviationdata.com

Runway ID Mag Var Hdg Length Elevation Surface ILS Freq ILS Id ILS Slope
04L 8 39° 10014 ft 179 ft Asphalt 111.9 HTV 3
04R 8 39° 11260 ft 179 ft Asphalt 111.5 HG 3
15 8 144° 9492 ft 179 ft Asphalt 109.1 HL 3
22L 8 219° 11260 ft 179 ft Asphalt 110.3 HK 3
22R 8 219° 10014 ft 179 ft Asphalt 110.7 HUO 3
33 8 324° 9492 ft 179 ft Asphalt -- -- --

Helsinki-Vantaa Airport, Finland
Use only for reference purposes



Not for navigational purposes.